01:22
Airports
Links
Donate
Help keep this website running!
PayPal
Bitcoin
METAR
EGLL 270050Z AUTO VRB02KT 9999 NCD 03/01 Q1021 NOSIG
Current Weather Conditions at EGLL
VFR 00:50:00 27-04-17
Automated station, no observer
Altimeter:30.15 hg
Temp:3.0°c 37°f
Dew point:1.0°c 34°f
Wind:2 knots, 2.3 mph, 1 m/s,
Variable direction
Visibility:6.21 statute miles
(CLR) Clear
No significant weather changes expected within 2 hours.
Past METAR reports
VFR 00:20:00 27-04-17
Automated station, no observer
Altimeter:30.15 hg
Temp:3.0°c 37°f
Dew point:1.0°c 34°f
Wind:3 knots, 3.5 mph, 2 m/s,
Variable direction
Visibility:6.21 statute miles
(CLR) Clear
No significant weather changes expected within 2 hours.
EGLL 270020Z AUTO VRB03KT 9999 NCD 03/01 Q1021 NOSIG
VFR 23:50:00 26-04-17
Automated station, no observer
Altimeter:30.15 hg
Temp:3.0°c 37°f
Dew point:1.0°c 34°f
Wind:2 knots, 2.3 mph, 1 m/s, from 310°
Visibility:6.21 statute miles
(CLR) Clear
No significant weather changes expected within 2 hours.
EGLL 262350Z AUTO 31002KT 9999 NCD 03/01 Q1021 NOSIG
VFR 23:20:00 26-04-17
Automated station, no observer
Altimeter:30.15 hg
Temp:4.0°c 39°f
Dew point:1.0°c 34°f
Wind:2 knots, 2.3 mph, 1 m/s,
Variable direction
Visibility:6.21 statute miles
(CLR) Clear
No significant weather changes expected within 2 hours.
EGLL 262320Z AUTO VRB02KT 9999 NCD 04/01 Q1021 NOSIG
VFR 22:50:00 26-04-17
Automated station, no observer
Altimeter:30.15 hg
Temp:4.0°c 39°f
Dew point:1.0°c 34°f
Wind:2 knots, 2.3 mph, 1 m/s,
Variable direction
Visibility:6.21 statute miles
(CLR) Clear
No significant weather changes expected within 2 hours.
EGLL 262250Z AUTO VRB02KT 9999 NCD 04/01 Q1021 NOSIG
MVFR 22:20:00 26-04-17
Automated station, no observer
Altimeter:30.15 hg
Temp:5.0°c 41°f
Dew point:1.0°c 34°f
Wind:2 knots, 2.3 mph, 1 m/s,
Variable direction
Visibility:4.97 statute miles
(CLR) Clear
No significant weather changes expected within 2 hours.
EGLL 262220Z AUTO VRB02KT 8000 NCD 05/01 Q1021 NOSIG
VFR 21:50:00 26-04-17
Automated station, no observer
Altimeter:30.15 hg
Temp:5.0°c 41°f
Dew point:1.0°c 34°f
Wind:3 knots, 3.5 mph, 2 m/s,
Variable direction
Visibility:6.21 statute miles
(CLR) Clear
No significant weather changes expected within 2 hours.
EGLL 262150Z AUTO VRB03KT 9999 NCD 05/01 Q1021 NOSIG
TAF
TAF EGLL 262256Z 2700/2806 30005KT 9999 FEW045 TEMPO 2700/2707 8000 TEMPO 2715/2803 7000 SHRA PROB30 TEMPO 2721/2803 BKN012
Forecast at EGLL
TEMPO 00:00 27-04-17 to 07:00 27-04-17
Visibility:4.97 statute miles
00:00 27-04-17 to 06:00 28-04-17
Wind:5 Knots from 300°
Visibility:6.21 statute miles
4500FEW A few
TEMPO 15:00 27-04-17 to 03:00 28-04-17
SHRA
Visibility:4.35 statute miles
TEMPO 21:00 27-04-17 to 03:00 28-04-17
30%
1200BKN Broken